This is the latest recevied weather packets stored in our database for station/object N7YET. If no packets are shown the sender has not sent any weather packets the latest 1 day(s).
| Time | Temp. | Humidity | Pressure | Rain* | Wind** | Luminosity | Snow |
|---|---|---|---|---|---|---|---|
| 1778099179 | 18.33° C | 30% | 1231.9 hPa | 0 mm | - | - | - |
| 1778097377 | 17.22° C | 32% | 1231.9 hPa | 0 mm | - | - | - |
| 1778096776 | 16.67° C | 32% | 1231.9 hPa | 0 mm | - | - | - |
| 1778095575 | 16.11° C | 33% | 1231.9 hPa | 0 mm | - | - | - |
| 1778094974 | 15.56° C | 33% | 1231.9 hPa | 0 mm | - | - | - |
| 1778093773 | 15° C | 34% | 1231.9 hPa | 0 mm | - | - | - |
| 1778090169 | 12.78° C | 35% | 1231.9 hPa | 0 mm | - | - | - |
| 1778084764 | 8.33° C | 41% | 1231.9 hPa | 0 mm | - | - | - |
| 1778082962 | 6.67° C | 44% | 1231.9 hPa | 0 mm | - | - | - |
| 1778079959 | 5° C | 48% | 1231.9 hPa | 0 mm | - | - | - |
| 1778075755 | 1.11° C | 54% | 1231.9 hPa | 0 mm | - | - | - |
| 1778075154 | 0° C | 55% | 1231.9 hPa | 0 mm | - | - | - |
| 1778074554 | -0.56° C | 55% | 1231.9 hPa | 0 mm | - | - | - |
| 1778073953 | -1.11° C | 56% | 1231.9 hPa | 0 mm | - | - | - |
| 1778072752 | -1.67° C | 56% | 1231.9 hPa | 0 mm | - | - | - |
| 1778072151 | -2.22° C | 57% | 1231.9 hPa | 0 mm | - | - | - |
| 1778070349 | -2.78° C | 56% | 1231.9 hPa | 0 mm | - | - | - |
| 1778068547 | -2.22° C | 58% | 1231.9 hPa | 0 mm | - | - | - |
| 1778067346 | -3.33° C | 57% | 1231.9 hPa | 0 mm | - | - | - |
| 1778065544 | -2.22° C | 57% | 1231.9 hPa | 0 mm | - | - | - |
| 1778064343 | -2.78° C | 55% | 1231.9 hPa | 0 mm | - | - | - |
| 1778063742 | -2.78° C | 55% | 1231.9 hPa | 0 mm | - | - | - |
| 1778062541 | -2.22° C | 54% | 1231.9 hPa | 0 mm | - | - | - |
| 1778061940 | -1.67° C | 54% | 1231.9 hPa | 0 mm | - | - | - |
| 1778060739 | -1.67° C | 54% | 1231.9 hPa | 0 mm | - | - | - |
* Rain latest hour (hover to see other rain measurements)
** Current wind speed in m/s (hover to see current wind gust speed)